Time;durP1;ratioP1;P1;durP2;ratioP2;P2;SDS_P1;SDS_P2;PMS_P1;PMS_P2;Temp;Humidity;BMP_temperature;BMP_pressure;BME280_temperature;BME280_humidity;BME280_pressure;Samples;Min_cycle;Max_cycle;Signal;HPM_P1;HPM_P2
2022/08/27 00:01:24;;;;;;;23.45;10.38;;;12.30;99.90;;;;;;5116662;28;20051;-63
2022/08/27 00:03:49;;;;;;;70.80;15.73;;;12.30;99.90;;;;;;5098405;28;20079;-63
2022/08/27 00:06:17;;;;;;;15.98;9.98;;;12.30;99.90;;;;;;5116477;28;20105;-63
2022/08/27 00:08:45;;;;;;;118.65;14.38;;;12.20;99.90;;;;;;5116839;28;20044;-63
2022/08/27 00:11:12;;;;;;;204.40;20.05;;;12.20;99.90;;;;;;5098539;28;20114;-64
2022/08/27 00:13:39;;;;;;;69.20;9.30;;;12.20;99.90;;;;;;5096150;28;20048;-63
2022/08/27 00:16:08;;;;;;;8.93;5.32;;;12.10;99.90;;;;;;5097969;28;20036;-63
2022/08/27 00:18:34;;;;;;;19.60;7.00;;;12.10;99.90;;;;;;5098424;28;20044;-64
2022/08/27 00:21:01;;;;;;;10.63;7.78;;;12.10;99.90;;;;;;5098464;28;20039;-63
2022/08/27 00:23:27;;;;;;;91.88;12.20;;;12.10;99.90;;;;;;5098213;28;20047;-64
2022/08/27 00:25:53;;;;;;;48.17;10.02;;;12.10;99.90;;;;;;5098147;28;20463;-64
2022/08/27 00:28:19;;;;;;;175.27;17.08;;;12.10;99.90;;;;;;5116139;28;20122;-64
2022/08/27 00:30:45;;;;;;;8.45;6.80;;;12.10;99.90;;;;;;5097982;28;20071;-64
2022/08/27 00:33:11;;;;;;;11.32;7.25;;;12.10;99.90;;;;;;5115995;28;20472;-64
2022/08/27 00:35:38;;;;;;;15.13;5.90;;;12.10;99.90;;;;;;5115361;28;20035;-64
2022/08/27 00:38:05;;;;;;;7.63;5.80;;;12.00;99.90;;;;;;5098015;28;20039;-64
2022/08/27 00:40:32;;;;;;;8.13;4.90;;;12.00;99.90;;;;;;5097573;28;20524;-64
2022/08/27 00:43:02;;;;;;;244.90;21.83;;;12.10;99.90;;;;;;5097675;28;20039;-64
2022/08/27 00:45:31;;;;;;;21.90;6.47;;;12.00;99.90;;;;;;5095561;28;20079;-64
2022/08/27 00:47:59;;;;;;;56.47;9.77;;;12.00;99.90;;;;;;5115777;28;20484;-64
2022/08/27 00:50:35;;;;;;;145.20;10.32;;;12.00;99.90;;;;;;5097411;28;20040;-64
2022/08/27 00:53:06;;;;;;;491.50;28.90;;;12.00;99.90;;;;;;5097492;28;20528;-64
2022/08/27 00:55:38;;;;;;;71.47;7.35;;;11.90;99.90;;;;;;5097409;28;20516;-63
2022/08/27 00:58:12;;;;;;;192.15;12.43;;;11.90;99.90;;;;;;5115612;28;20043;-64
2022/08/27 01:00:38;;;;;;;18.58;3.95;;;11.90;99.90;;;;;;5115608;28;20518;-64
2022/08/27 01:03:05;;;;;;;7.05;4.80;;;11.90;99.90;;;;;;5080446;28;20078;-64
2022/08/27 01:05:33;;;;;;;5.78;4.07;;;11.90;99.90;;;;;;5097265;28;20118;-64
2022/08/27 01:08:06;;;;;;;11.52;6.35;;;12.00;99.90;;;;;;5097235;28;20511;-64
2022/08/27 01:10:32;;;;;;;8.80;6.10;;;12.00;99.90;;;;;;5097081;28;20071;-64
2022/08/27 01:12:59;;;;;;;201.90;17.75;;;11.90;99.90;;;;;;5080281;28;20039;-64
2022/08/27 01:15:27;;;;;;;11.30;7.28;;;12.00;99.90;;;;;;5094699;28;20126;-64
2022/08/27 01:17:56;;;;;;;8.40;5.65;;;11.90;99.90;;;;;;5097201;28;20050;-64
2022/08/27 01:20:26;;;;;;;4.25;2.90;;;11.90;99.90;;;;;;5097265;28;20126;-64
2022/08/27 01:23:08;;;;;;;3.17;2.15;;;11.90;99.90;;;;;;5115223;28;20047;-64
2022/08/27 01:25:34;;;;;;;41.28;5.07;;;11.90;99.90;;;;;;5097036;28;20043;-64
2022/08/27 01:28:02;;;;;;;42.80;4.70;;;11.80;99.90;;;;;;5115038;28;20039;-64
2022/08/27 01:30:28;;;;;;;145.38;10.95;;;11.80;99.90;;;;;;5115140;28;20050;-64
2022/08/27 01:32:54;;;;;;;3.10;1.70;;;11.70;99.90;;;;;;5096879;28;20031;-64
2022/08/27 01:35:22;;;;;;;134.05;8.02;;;11.60;99.90;;;;;;5096577;28;20044;-64
2022/08/27 01:37:51;;;;;;;80.15;5.70;;;11.60;99.90;;;;;;5096636;28;20104;-64
2022/08/27 01:40:18;;;;;;;175.40;10.65;;;11.50;99.90;;;;;;5114809;28;20118;-64
2022/08/27 01:42:46;;;;;;;223.32;15.70;;;11.50;99.90;;;;;;5096715;28;20403;-64
2022/08/27 01:45:16;;;;;;;93.85;10.80;;;11.50;99.90;;;;;;5111935;28;20088;-64
2022/08/27 01:47:42;;;;;;;46.03;6.35;;;11.50;99.90;;;;;;5095932;28;20071;-64
2022/08/27 01:50:15;;;;;;;70.63;7.10;;;11.40;99.90;;;;;;5114511;28;20098;-64
2022/08/27 01:52:42;;;;;;;92.72;9.98;;;11.40;99.90;;;;;;5084770;28;20036;-64
2022/08/27 01:55:10;;;;;;;7.93;4.47;;;11.50;99.90;;;;;;5075905;28;20040;-64
2022/08/27 01:57:37;;;;;;;5.05;4.55;;;11.50;99.90;;;;;;5076144;28;20044;-64
2022/08/27 02:00:10;;;;;;;4.88;3.67;;;11.60;99.90;;;;;;5094057;28;20055;-64
2022/08/27 02:02:38;;;;;;;7.43;4.18;;;11.60;99.90;;;;;;5059201;28;20085;-64
2022/08/27 02:05:04;;;;;;;7.18;5.22;;;11.60;99.90;;;;;;5075733;28;20051;-64
2022/08/27 02:07:30;;;;;;;11.10;6.13;;;11.70;99.90;;;;;;5093924;28;20040;-64
2022/08/27 02:09:56;;;;;;;9.15;7.45;;;11.70;99.90;;;;;;5076052;28;20488;-64
2022/08/27 02:12:22;;;;;;;9.80;7.05;;;11.80;99.90;;;;;;5075874;28;20028;-64
2022/08/27 02:14:47;;;;;;;9.55;6.20;;;11.80;99.90;;;;;;5091489;28;20525;-64
2022/08/27 02:17:14;;;;;;;14.40;8.63;;;11.90;99.90;;;;;;5059147;28;20078;-64
2022/08/27 02:19:39;;;;;;;9.13;6.43;;;11.90;99.90;;;;;;5075524;28;20098;-64
2022/08/27 02:22:05;;;;;;;9.32;6.68;;;11.90;99.90;;;;;;5075461;28;20044;-64
2022/08/27 02:24:31;;;;;;;7.25;6.55;;;11.90;99.90;;;;;;5075423;28;20542;-64
2022/08/27 02:26:57;;;;;;;13.30;8.10;;;11.90;99.90;;;;;;5093580;28;20040;-64
2022/08/27 02:29:24;;;;;;;10.35;7.80;;;11.90;99.90;;;;;;5075599;28;20442;-64
2022/08/27 02:31:51;;;;;;;9.45;6.80;;;11.90;99.90;;;;;;5075513;28;20109;-64
2022/08/27 02:34:17;;;;;;;7.85;6.72;;;11.90;99.90;;;;;;5075387;28;20453;-64
2022/08/27 02:36:43;;;;;;;17.63;10.50;;;11.80;99.90;;;;;;5058531;28;20044;-64
2022/08/27 02:39:10;;;;;;;25.33;10.80;;;11.80;99.90;;;;;;5075309;28;20048;-64
2022/08/27 02:41:35;;;;;;;10.40;7.20;;;11.80;99.90;;;;;;5075225;28;20559;-63
2022/08/27 02:44:03;;;;;;;45.92;11.68;;;11.80;99.90;;;;;;5091216;28;20123;-61
2022/08/27 02:46:29;;;;;;;13.70;9.45;;;11.80;99.90;;;;;;5058289;28;20051;-62
2022/08/27 02:48:55;;;;;;;45.03;12.40;;;11.80;99.90;;;;;;5075181;28;20036;-63
2022/08/27 02:51:21;;;;;;;32.38;9.15;;;11.70;99.90;;;;;;5058656;28;20036;-63
2022/08/27 02:53:47;;;;;;;27.60;10.13;;;11.70;99.90;;;;;;5075115;28;20499;-63
2022/08/27 02:56:13;;;;;;;11.75;6.07;;;11.70;99.90;;;;;;5075207;28;20044;-63
2022/08/27 02:58:40;;;;;;;27.02;7.43;;;11.60;99.90;;;;;;5057912;28;20105;-63
2022/08/27 03:01:06;;;;;;;202.43;16.85;;;11.60;99.90;;;;;;5074897;28;20510;-63
2022/08/27 03:03:32;;;;;;;48.78;6.47;;;11.60;99.90;;;;;;5092957;28;20055;-63
2022/08/27 03:05:58;;;;;;;6.95;4.93;;;11.50;99.90;;;;;;5092640;28;20052;-63
2022/08/27 03:08:26;;;;;;;5.80;4.35;;;11.50;99.90;;;;;;5075003;28;20046;-63
2022/08/27 03:10:54;;;;;;;112.35;8.50;;;11.40;99.90;;;;;;5057977;28;20044;-63
2022/08/27 03:13:20;;;;;;;68.75;6.68;;;11.40;99.90;;;;;;5072928;28;20097;-63
2022/08/27 03:15:46;;;;;;;85.50;9.32;;;11.30;99.90;;;;;;5074934;28;20032;-63
2022/08/27 03:18:18;;;;;;;15.10;4.30;;;11.30;99.90;;;;;;5093081;28;20438;-63
2022/08/27 03:20:55;;;;;;;405.25;28.45;;;11.30;99.90;;;;;;5092937;28;20038;-63
2022/08/27 03:23:23;;;;;;;13.07;6.65;;;11.30;99.90;;;;;;5074801;28;20086;-63
2022/08/27 03:25:55;;;;;;;288.95;25.48;;;11.30;99.90;;;;;;5074989;28;20551;-63
2022/08/27 03:28:24;;;;;;;224.68;15.80;;;11.20;99.90;;;;;;5074871;28;20082;-63
2022/08/27 03:30:54;;;;;;;161.60;13.23;;;11.20;99.90;;;;;;5074696;28;20072;-63
2022/08/27 03:33:21;;;;;;;332.02;34.78;;;11.20;99.90;;;;;;5074702;28;20097;-63
2022/08/27 03:35:47;;;;;;;26.20;7.75;;;11.20;99.90;;;;;;5092853;28;20039;-63
2022/08/27 03:38:14;;;;;;;9.23;7.25;;;11.20;99.90;;;;;;5074825;28;20442;-63
2022/08/27 03:40:42;;;;;;;9.65;6.97;;;11.20;99.90;;;;;;5074497;28;20036;-63
2022/08/27 03:43:09;;;;;;;10.48;6.85;;;11.20;99.90;;;;;;5074504;28;20101;-63
2022/08/27 03:45:34;;;;;;;9.20;7.32;;;11.20;99.90;;;;;;5072310;28;20460;-63
2022/08/27 03:48:00;;;;;;;10.60;7.57;;;11.20;99.90;;;;;;5074339;28;20051;-63
2022/08/27 03:50:26;;;;;;;7.68;6.40;;;11.20;99.90;;;;;;5074417;28;20122;-63
2022/08/27 03:52:52;;;;;;;8.80;6.95;;;11.20;99.90;;;;;;5074722;28;20058;-63
2022/08/27 03:55:18;;;;;;;9.90;6.18;;;11.20;99.90;;;;;;5092478;28;20032;-63
2022/08/27 03:57:44;;;;;;;18.77;7.03;;;11.20;99.90;;;;;;5092760;28;20069;-63
2022/08/27 04:00:12;;;;;;;14.65;8.60;;;11.20;99.90;;;;;;5092397;28;20040;-63
2022/08/27 04:02:38;;;;;;;11.88;8.48;;;11.20;99.90;;;;;;5074355;28;20083;-63
2022/08/27 04:05:05;;;;;;;8.38;7.43;;;11.20;99.90;;;;;;5092031;28;20403;-63
2022/08/27 04:07:32;;;;;;;11.38;7.82;;;11.20;99.90;;;;;;5056592;28;20176;-63
2022/08/27 04:09:58;;;;;;;10.90;7.85;;;11.30;99.90;;;;;;5075576;28;20048;-63
2022/08/27 04:12:25;;;;;;;16.90;10.05;;;11.30;99.90;;;;;;5060348;28;20046;-63
2022/08/27 04:14:51;;;;;;;14.02;10.18;;;11.30;99.90;;;;;;5074817;28;20127;-63
2022/08/27 04:17:17;;;;;;;10.95;7.35;;;11.40;99.90;;;;;;5095702;28;20504;-63
2022/08/27 04:19:42;;;;;;;8.48;6.63;;;11.40;99.90;;;;;;5078114;28;20450;-63
2022/08/27 04:22:08;;;;;;;7.50;6.03;;;11.40;99.90;;;;;;5078020;28;20039;-63
2022/08/27 04:24:35;;;;;;;9.77;7.85;;;11.40;99.90;;;;;;5095829;28;20048;-63
2022/08/27 04:27:02;;;;;;;41.70;13.32;;;11.40;99.90;;;;;;5095708;28;20040;-63
2022/08/27 04:29:28;;;;;;;11.40;8.60;;;11.50;99.90;;;;;;5077670;28;20043;-63
2022/08/27 04:31:55;;;;;;;11.63;8.80;;;11.50;99.90;;;;;;5077906;28;20051;-63
2022/08/27 04:34:21;;;;;;;14.02;8.30;;;11.50;99.90;;;;;;5095864;28;20036;-63
2022/08/27 04:36:47;;;;;;;8.15;7.15;;;11.50;99.90;;;;;;5077533;28;20472;-63
2022/08/27 04:39:13;;;;;;;10.82;7.20;;;11.60;99.90;;;;;;5077460;28;20039;-63
2022/08/27 04:41:40;;;;;;;13.07;8.50;;;11.60;99.90;;;;;;5077411;28;20123;-63
2022/08/27 04:44:08;;;;;;;12.93;8.82;;;11.60;99.90;;;;;;5074689;28;20303;-63
2022/08/27 04:46:37;;;;;;;11.65;8.68;;;11.60;99.90;;;;;;5076515;28;20435;-63
2022/08/27 04:49:09;;;;;;;12.00;9.77;;;11.70;99.90;;;;;;5059936;28;20040;-63
2022/08/27 04:51:35;;;;;;;11.27;8.50;;;11.70;99.90;;;;;;5076527;28;20037;-63
2022/08/27 04:54:02;;;;;;;12.60;8.95;;;11.80;99.90;;;;;;5076315;28;20045;-63
2022/08/27 04:56:29;;;;;;;12.77;9.05;;;11.80;99.90;;;;;;5076265;28;20042;-63
2022/08/27 04:58:56;;;;;;;13.20;9.68;;;11.90;99.90;;;;;;5094231;28;20515;-63
2022/08/27 05:01:27;;;;;;;15.13;10.00;;;11.90;99.90;;;;;;5094353;28;20044;-63
2022/08/27 05:03:54;;;;;;;12.40;9.55;;;12.00;99.90;;;;;;5094638;28;20492;-63
2022/08/27 05:06:22;;;;;;;12.73;9.63;;;12.00;99.90;;;;;;5093855;28;20060;-63
2022/08/27 05:08:49;;;;;;;16.27;11.27;;;12.10;99.90;;;;;;5076029;28;20119;-63
2022/08/27 05:11:16;;;;;;;12.95;10.13;;;12.10;99.90;;;;;;5094278;28;20043;-64
2022/08/27 05:13:43;;;;;;;15.48;10.75;;;12.10;99.90;;;;;;5090422;28;20036;-63
2022/08/27 05:16:12;;;;;;;12.25;9.80;;;12.10;99.90;;;;;;5059217;28;20117;-63
2022/08/27 05:18:40;;;;;;;16.17;11.43;;;12.20;99.90;;;;;;5093901;28;20040;-63
2022/08/27 05:21:06;;;;;;;19.10;10.85;;;12.20;99.90;;;;;;5075572;28;20071;-63
2022/08/27 05:23:33;;;;;;;15.63;10.88;;;12.20;99.90;;;;;;5094010;28;20446;-63
2022/08/27 05:26:00;;;;;;;17.00;12.45;;;12.20;99.90;;;;;;5075683;28;20051;-63
2022/08/27 05:28:28;;;;;;;14.85;10.65;;;12.20;99.90;;;;;;5073031;28;20044;-62
2022/08/27 05:31:01;;;;;;;18.10;11.43;;;12.30;99.90;;;;;;5075437;28;20036;-63
2022/08/27 05:33:27;;;;;;;15.13;9.45;;;12.40;99.90;;;;;;5075429;28;20051;-63
2022/08/27 05:35:56;;;;;;;11.80;10.18;;;12.50;99.90;;;;;;5075716;28;20040;-63
2022/08/27 05:38:25;;;;;;;12.30;10.05;;;12.60;99.90;;;;;;5075425;28;20508;-63
2022/08/27 05:41:07;;;;;;;13.00;9.63;;;12.70;99.90;;;;;;5075426;28;20048;-63
2022/08/27 05:43:32;;;;;;;14.75;11.05;;;12.80;99.90;;;;;;5072910;28;20901;-63
2022/08/27 05:46:01;;;;;;;14.20;10.40;;;13.00;99.90;;;;;;5075031;28;20135;-63
2022/08/27 05:48:27;;;;;;;16.92;11.23;;;13.10;99.90;;;;;;5075427;28;20370;-63
2022/08/27 05:50:53;;;;;;;14.25;10.75;;;13.20;99.90;;;;;;5093419;28;20059;-63
2022/08/27 05:53:19;;;;;;;16.15;12.00;;;13.40;99.90;;;;;;5093432;28;20406;-63
2022/08/27 05:55:45;;;;;;;13.13;9.93;;;13.50;99.90;;;;;;5074883;28;20043;-63
2022/08/27 06:01:05;;;;;;;16.83;9.98;;;13.80;99.90;;;;;;5075079;28;20040;-62
2022/08/27 06:03:34;;;;;;;12.93;9.45;;;14.00;99.90;;;;;;5075214;28;20101;-63
2022/08/27 06:06:02;;;;;;;14.38;9.13;;;14.10;99.90;;;;;;5071331;28;20497;-63
2022/08/27 06:08:28;;;;;;;9.43;7.85;;;14.20;99.90;;;;;;5072707;28;20052;-63
2022/08/27 06:10:55;;;;;;;11.50;9.18;;;14.30;99.90;;;;;;5070901;28;20045;-62
2022/08/27 06:13:22;;;;;;;13.27;8.38;;;14.50;99.90;;;;;;5069646;28;20040;-62
2022/08/27 06:15:48;;;;;;;10.40;8.00;;;14.60;99.90;;;;;;5054543;28;20040;-63
2022/08/27 06:18:14;;;;;;;9.95;7.75;;;14.70;99.90;;;;;;5071370;28;20111;-63
2022/08/27 06:20:40;;;;;;;9.30;6.28;;;14.90;99.90;;;;;;5072381;28;20528;-63
2022/08/27 06:23:06;;;;;;;13.95;6.93;;;15.00;99.90;;;;;;5072269;28;20040;-62
2022/08/27 06:25:32;;;;;;;8.18;5.55;;;15.10;99.90;;;;;;5070903;28;20477;-62
2022/08/27 06:27:58;;;;;;;7.53;5.47;;;15.20;99.90;;;;;;5072452;28;20151;-62
2022/08/27 06:30:25;;;;;;;7.78;6.00;;;15.40;99.90;;;;;;5054559;28;20098;-62
2022/08/27 06:32:50;;;;;;;6.30;4.45;;;15.50;99.90;;;;;;5071593;28;20120;-62
2022/08/27 06:35:17;;;;;;;7.50;5.03;;;15.70;99.90;;;;;;5070942;28;20401;-62
2022/08/27 06:37:43;;;;;;;6.97;5.80;;;15.80;99.90;;;;;;5070889;28;20052;-61
2022/08/27 06:40:10;;;;;;;11.35;6.07;;;15.90;99.90;;;;;;5072628;28;20036;-62
2022/08/27 06:42:37;;;;;;;9.10;5.13;;;16.00;99.90;;;;;;5072051;28;20036;-62
2022/08/27 06:45:04;;;;;;;9.30;5.20;;;16.20;99.90;;;;;;5069544;28;20041;-62
2022/08/27 06:47:31;;;;;;;6.07;3.70;;;16.30;99.90;;;;;;5070746;28;20397;-62
2022/08/27 06:49:57;;;;;;;7.47;3.72;;;16.30;99.90;;;;;;5070672;28;20080;-62
2022/08/27 06:52:23;;;;;;;5.40;3.10;;;16.50;99.90;;;;;;5072045;28;20125;-62
2022/08/27 06:54:49;;;;;;;7.43;2.70;;;16.60;99.90;;;;;;5071850;28;20032;-61
2022/08/27 06:57:16;;;;;;;8.15;2.47;;;16.60;99.90;;;;;;5070870;28;20135;-61
2022/08/27 06:59:43;;;;;;;6.97;2.20;;;16.70;99.90;;;;;;5070680;28;20102;-62
2022/08/27 07:02:09;;;;;;;6.28;2.35;;;16.80;99.90;;;;;;5070516;28;20044;-61
2022/08/27 07:04:35;;;;;;;7.93;2.25;;;16.90;99.90;;;;;;5071922;28;20044;-61
2022/08/27 07:07:02;;;;;;;5.60;2.40;;;16.90;99.90;;;;;;5070078;28;20051;-62
2022/08/27 07:09:30;;;;;;;8.57;3.15;;;17.10;99.90;;;;;;5070470;28;20048;-61
2022/08/27 07:11:57;;;;;;;8.88;2.20;;;17.20;99.90;;;;;;5054014;28;20127;-62
2022/08/27 07:14:23;;;;;;;6.50;2.40;;;17.20;99.90;;;;;;5068035;28;20044;-62
2022/08/27 07:16:50;;;;;;;8.98;2.28;;;17.30;99.90;;;;;;5053996;28;20127;-61
2022/08/27 07:19:16;;;;;;;7.93;2.40;;;17.30;99.90;;;;;;5071537;28;20049;-62
2022/08/27 07:21:42;;;;;;;6.43;2.78;;;17.40;99.90;;;;;;5071589;28;20083;-62
2022/08/27 07:24:08;;;;;;;7.22;2.30;;;17.50;99.90;;;;;;5070382;28;20080;-61
2022/08/27 07:26:38;;;;;;;5.22;2.15;;;17.50;99.90;;;;;;5071613;28;20051;-61
2022/08/27 07:29:09;;;;;;;6.18;2.55;;;17.50;99.90;;;;;;5071461;28;20527;-61
2022/08/27 07:31:35;;;;;;;7.97;2.63;;;17.50;99.90;;;;;;5053651;28;20083;-62
2022/08/27 07:34:02;;;;;;;4.53;2.28;;;17.50;99.90;;;;;;5070280;28;20102;-61
2022/08/27 07:36:28;;;;;;;8.45;2.25;;;17.50;99.90;;;;;;5070163;28;20044;-61
2022/08/27 07:38:54;;;;;;;5.75;2.33;;;17.50;99.90;;;;;;5070396;28;20045;-61
2022/08/27 07:41:20;;;;;;;9.55;3.08;;;17.50;99.90;;;;;;5053471;28;20550;-61
2022/08/27 07:46:31;;;;;;;5.50;2.50;;;17.50;99.90;;;;;;5074261;28;20419;-62
2022/08/27 07:48:57;;;;;;;6.25;2.00;;;17.50;99.90;;;;;;5073840;28;20485;-61
2022/08/27 07:51:25;;;;;;;5.82;2.45;;;17.50;99.90;;;;;;5071517;28;20177;-62
2022/08/27 07:53:52;;;;;;;5.63;2.55;;;17.60;99.90;;;;;;5075679;28;20044;-61
2022/08/27 07:56:19;;;;;;;6.63;2.28;;;17.60;99.90;;;;;;5057518;28;20040;-62
2022/08/27 07:58:45;;;;;;;7.32;2.25;;;17.80;99.90;;;;;;5075254;28;20033;-62
2022/08/27 08:01:12;;;;;;;5.43;1.77;;;17.90;99.90;;;;;;5074203;28;20040;-61
2022/08/27 08:03:39;;;;;;;6.30;1.83;;;18.10;99.90;;;;;;5073845;28;20040;-61
2022/08/27 08:06:07;;;;;;;5.60;2.00;;;18.10;99.90;;;;;;5073821;28;20044;-61
2022/08/27 08:08:35;;;;;;;6.03;1.60;;;18.20;99.90;;;;;;5075224;28;20045;-61
2022/08/27 08:11:02;;;;;;;10.68;2.28;;;18.20;99.90;;;;;;5075083;28;20040;-62
2022/08/27 08:13:29;;;;;;;8.15;2.03;;;18.20;99.90;;;;;;5071211;28;20074;-61
2022/08/27 08:15:57;;;;;;;9.52;1.98;;;18.30;99.90;;;;;;5073559;28;20036;-61
2022/08/27 08:18:23;;;;;;;7.00;1.95;;;18.40;99.90;;;;;;5073579;28;20087;-61
2022/08/27 08:20:48;;;;;;;5.07;1.90;;;18.40;99.90;;;;;;5074978;28;20064;-62
2022/08/27 08:23:15;;;;;;;6.15;1.67;;;18.50;99.90;;;;;;5073725;28;20468;-61
2022/08/27 08:25:41;;;;;;;5.75;1.58;;;18.60;99.90;;;;;;5073464;28;20111;-61
2022/08/27 08:28:07;;;;;;;6.50;1.70;;;18.60;99.90;;;;;;5074558;28;20485;-61
2022/08/27 08:30:34;;;;;;;6.03;1.90;;;18.70;99.90;;;;;;5073323;28;20044;-61
2022/08/27 08:32:59;;;;;;;7.78;1.92;;;18.80;99.90;;;;;;5073392;28;20072;-62
2022/08/27 08:35:25;;;;;;;6.32;1.90;;;18.80;99.90;;;;;;5073322;28;20078;-62
2022/08/27 08:37:51;;;;;;;6.65;1.45;;;18.90;99.90;;;;;;5073538;28;20051;-62
2022/08/27 08:40:30;;;;;;;6.32;1.30;;;19.10;99.90;;;;;;5056498;28;20040;-62
2022/08/27 08:42:56;;;;;;;6.85;1.38;;;19.20;99.90;;;;;;5056498;28;20080;-61
2022/08/27 08:45:28;;;;;;;6.72;1.98;;;19.20;99.90;;;;;;5070930;28;20201;-62
2022/08/27 08:48:20;;;;;;;8.65;1.25;;;19.30;99.90;;;;;;5073064;28;20094;-64
2022/08/27 08:51:02;;;;;;;4.32;1.33;;;19.50;99.90;;;;;;5074383;28;20090;-63
2022/08/27 08:54:02;;;;;;;5.57;1.55;;;19.60;99.90;;;;;;5074197;28;20149;-62
2022/08/27 08:56:37;;;;;;;6.03;1.13;;;19.40;99.90;;;;;;5055670;28;20051;-61
2022/08/27 08:59:13;;;;;;;7.03;1.65;;;19.20;99.90;;;;;;5056618;28;20400;-62
2022/08/27 09:01:39;;;;;;;7.20;1.23;;;19.10;99.90;;;;;;5074186;28;20142;-62
2022/08/27 09:04:10;;;;;;;6.30;1.58;;;19.00;99.90;;;;;;5073002;28;20036;-62
2022/08/27 09:06:39;;;;;;;5.15;1.70;;;18.90;99.90;;;;;;5085008;28;20067;-64
2022/08/27 09:09:34;;;;;;;4.93;1.42;;;18.90;99.90;;;;;;5076318;28;20043;-63
2022/08/27 09:12:14;;;;;;;7.30;1.35;;;18.90;99.90;;;;;;5059371;28;20127;-62
2022/08/27 09:14:46;;;;;;;5.68;1.25;;;19.00;99.90;;;;;;5074050;28;20043;-63
2022/08/27 09:17:12;;;;;;;7.13;1.30;;;18.90;99.90;;;;;;5075978;28;20040;-61
2022/08/27 09:19:38;;;;;;;5.95;1.90;;;18.90;99.90;;;;;;5075870;28;20079;-61
2022/08/27 09:22:16;;;;;;;7.25;1.40;;;18.90;99.90;;;;;;5076785;28;20051;-61
2022/08/27 09:25:02;;;;;;;6.18;1.55;;;18.90;99.90;;;;;;5076618;28;20181;-62
2022/08/27 09:27:28;;;;;;;4.15;1.50;;;18.90;99.90;;;;;;5076715;28;20127;-61
2022/08/27 09:29:55;;;;;;;6.70;1.45;;;19.00;99.90;;;;;;5094958;28;20093;-62
2022/08/27 09:32:31;;;;;;;10.02;1.60;;;19.10;99.90;;;;;;5076613;28;20043;-62
2022/08/27 09:35:03;;;;;;;4.10;1.27;;;19.20;99.90;;;;;;5076676;28;20036;-62
2022/08/27 09:37:37;;;;;;;5.22;1.50;;;19.20;99.90;;;;;;5094487;28;20178;-62
2022/08/27 09:40:23;;;;;;;4.28;1.20;;;19.40;99.90;;;;;;5076589;28;20043;-62
2022/08/27 09:42:52;;;;;;;5.00;1.58;;;19.40;99.90;;;;;;5094629;28;20036;-62
2022/08/27 09:45:22;;;;;;;4.10;1.25;;;19.50;99.90;;;;;;5074094;28;20092;-63
2022/08/27 09:48:01;;;;;;;5.93;1.30;;;19.60;99.90;;;;;;5094087;28;20036;-62
2022/08/27 09:50:36;;;;;;;7.70;1.90;;;19.60;99.90;;;;;;5076307;28;20420;-62
2022/08/27 09:53:03;;;;;;;4.00;1.25;;;19.70;99.90;;;;;;5076315;28;20098;-62
2022/08/27 09:55:51;;;;;;;6.13;1.55;;;19.70;99.90;;;;;;5076073;28;20489;-62
2022/08/27 09:58:40;;;;;;;11.50;1.73;;;19.70;99.90;;;;;;5075900;28;20040;-62
2022/08/27 10:01:26;;;;;;;6.25;1.30;;;19.70;99.90;;;;;;5020752;28;20130;-62
2022/08/27 10:04:10;;;;;;;6.55;1.50;;;19.80;99.90;;;;;;5075961;28;20050;-62
2022/08/27 10:06:37;;;;;;;7.18;2.00;;;20.10;99.90;;;;;;5074615;28;20055;-62
2022/08/27 10:09:13;;;;;;;5.35;1.35;;;20.40;99.90;;;;;;5093974;28;20078;-62
2022/08/27 10:12:18;;;;;;;3.95;1.25;;;20.60;99.90;;;;;;5075674;28;20036;-62
2022/08/27 10:14:48;;;;;;;5.20;1.52;;;20.80;99.90;;;;;;5056959;28;20036;-62
2022/08/27 10:17:29;;;;;;;5.32;1.52;;;20.80;99.90;;;;;;5093763;28;20044;-62
2022/08/27 10:20:17;;;;;;;6.55;1.17;;;20.70;99.90;;;;;;5093690;28;20512;-62
2022/08/27 10:23:02;;;;;;;10.45;2.22;;;20.50;99.90;;;;;;5075676;28;20152;-62
2022/08/27 10:25:39;;;;;;;3.03;1.02;;;20.30;99.90;;;;;;5075687;28;20048;-62
2022/08/27 10:28:32;;;;;;;2.90;1.10;;;20.20;99.90;;;;;;5075418;28;20036;-62
2022/08/27 10:31:20;;;;;;;3.97;1.17;;;20.10;99.90;;;;;;5075343;28;20044;-61
2022/08/27 10:34:10;;;;;;;10.63;1.60;;;20.20;99.90;;;;;;5093394;28;20047;-62
2022/08/27 10:37:01;;;;;;;7.80;1.52;;;20.20;99.90;;;;;;5065782;28;20047;-62
2022/08/27 10:39:30;;;;;;;6.35;1.05;;;20.50;99.90;;;;;;5093482;28;20032;-62
2022/08/27 10:42:10;;;;;;;5.43;1.60;;;20.80;99.90;;;;;;5074979;28;20044;-62
2022/08/27 10:44:51;;;;;;;4.55;1.17;;;20.90;99.90;;;;;;5072897;28;20079;-62
2022/08/27 10:47:42;;;;;;;4.63;1.10;;;20.80;99.90;;;;;;5093286;28;20068;-62
2022/08/27 10:50:47;;;;;;;6.65;1.10;;;20.70;99.90;;;;;;5093332;28;20067;-60
2022/08/27 10:53:34;;;;;;;11.02;1.73;;;20.60;99.90;;;;;;5075083;28;20484;-60
2022/08/27 10:56:11;;;;;;;3.90;1.20;;;20.50;99.90;;;;;;5075398;28;20078;-60
2022/08/27 10:58:45;;;;;;;4.43;1.67;;;20.40;99.90;;;;;;5075217;28;20484;-60
2022/08/27 11:01:33;;;;;;;7.20;1.30;;;20.40;99.90;;;;;;5075003;28;20044;-60
2022/08/27 11:04:04;;;;;;;4.20;1.00;;;20.40;99.90;;;;;;5093010;28;20050;-60
2022/08/27 11:06:40;;;;;;;5.72;1.50;;;20.40;99.90;;;;;;5071340;28;20048;-60
2022/08/27 11:09:13;;;;;;;6.05;0.95;;;20.50;99.90;;;;;;5072785;28;20068;-60
2022/08/27 11:11:44;;;;;;;5.80;1.23;;;21.20;99.90;;;;;;5055130;28;20040;-61
2022/08/27 11:14:29;;;;;;;5.40;1.15;;;22.10;99.90;;;;;;5069437;28;20067;-60
2022/08/27 11:17:22;;;;;;;5.53;1.17;;;23.20;99.90;;;;;;5054834;28;20080;-61
2022/08/27 11:20:00;;;;;;;4.07;0.93;;;24.00;99.90;;;;;;5053794;28;20040;-61
2022/08/27 11:22:39;;;;;;;6.03;1.45;;;24.50;99.90;;;;;;5071391;28;20044;-62
2022/08/27 11:25:28;;;;;;;7.07;1.30;;;24.30;99.90;;;;;;5071689;28;20123;-62
2022/08/27 11:27:57;;;;;;;8.55;1.17;;;23.90;99.90;;;;;;5071323;28;20048;-63
2022/08/27 11:30:28;;;;;;;4.13;1.08;;;23.60;99.90;;;;;;5071353;28;20123;-62
2022/08/27 11:33:28;;;;;;;3.92;1.20;;;23.70;99.90;;;;;;5072761;28;20115;-61
2022/08/27 11:36:19;;;;;;;3.90;0.90;;;23.60;99.90;;;;;;5072572;28;20099;-62
2022/08/27 11:39:00;;;;;;;5.38;1.30;;;23.30;99.90;;;;;;5070404;28;20040;-64
2022/08/27 11:41:50;;;;;;;5.13;1.40;;;22.90;99.90;;;;;;5053861;28;20047;-62
2022/08/27 11:44:21;;;;;;;4.63;1.13;;;22.50;99.90;;;;;;5068114;28;20076;-62
2022/08/27 11:46:53;;;;;;;4.13;1.30;;;22.10;99.90;;;;;;5070308;28;20094;-62
2022/08/27 11:49:26;;;;;;;3.33;1.20;;;21.90;99.90;;;;;;5071695;28;20033;-62
2022/08/27 11:52:03;;;;;;;6.00;1.00;;;21.80;99.90;;;;;;5070281;28;20045;-62
2022/08/27 11:54:43;;;;;;;5.80;1.20;;;21.90;99.90;;;;;;5070581;28;20105;-63
2022/08/27 11:57:24;;;;;;;4.10;0.85;;;22.40;99.90;;;;;;5071280;28;20489;-63
2022/08/27 11:59:50;;;;;;;4.43;0.90;;;23.00;99.90;;;;;;5070151;28;20051;-62
2022/08/27 12:02:26;;;;;;;3.50;1.05;;;23.40;99.90;;;;;;5053445;28;20040;-62
2022/08/27 12:05:05;;;;;;;6.28;1.23;;;23.60;99.70;;;;;;5071460;28;20041;-62
2022/08/27 12:07:34;;;;;;;3.03;0.70;;;23.60;99.40;;;;;;5069822;28;20087;-62
2022/08/27 12:10:19;;;;;;;5.90;0.93;;;23.70;98.60;;;;;;5070020;28;20513;-62
2022/08/27 12:13:06;;;;;;;4.38;1.02;;;23.80;99.00;;;;;;5059145;28;20038;-62
2022/08/27 12:16:12;;;;;;;5.07;1.17;;;24.00;97.60;;;;;;5048071;28;20048;-63
2022/08/27 12:19:15;;;;;;;5.20;0.90;;;24.20;96.80;;;;;;5039465;28;20569;-62
2022/08/27 12:21:48;;;;;;;2.92;0.63;;;24.30;96.30;;;;;;5051130;28;20044;-62
2022/08/27 12:24:32;;;;;;;2.78;1.00;;;24.00;95.20;;;;;;5047620;28;20132;-63
2022/08/27 12:27:35;;;;;;;3.78;0.80;;;23.50;94.40;;;;;;5051562;28;20045;-62
2022/08/27 12:30:21;;;;;;;4.72;1.33;;;23.50;95.10;;;;;;5010463;28;20115;-62
2022/08/27 12:32:53;;;;;;;4.20;0.80;;;23.80;95.90;;;;;;5034273;28;20106;-63
2022/08/27 12:35:29;;;;;;;4.60;1.20;;;23.90;95.90;;;;;;5042229;28;20124;-62
2022/08/27 12:38:19;;;;;;;6.97;0.93;;;23.80;94.60;;;;;;5054071;28;20041;-62
2022/08/27 12:40:48;;;;;;;4.32;0.80;;;23.60;95.00;;;;;;5053789;28;20046;-62
2022/08/27 12:43:27;;;;;;;5.07;1.08;;;23.40;95.30;;;;;;5055037;28;20490;-61
2022/08/27 12:46:04;;;;;;;6.63;1.00;;;23.20;95.60;;;;;;5051515;28;20497;-61
2022/08/27 12:48:36;;;;;;;3.50;1.10;;;23.00;95.40;;;;;;5054370;28;20042;-62
2022/08/27 12:51:07;;;;;;;4.65;1.30;;;23.10;96.40;;;;;;5053267;28;20399;-60
2022/08/27 12:53:57;;;;;;;9.55;2.08;;;23.30;96.10;;;;;;5036154;28;20045;-60
2022/08/27 12:56:43;;;;;;;4.78;1.75;;;23.40;96.00;;;;;;5053200;28;20052;-59
2022/08/27 12:59:30;;;;;;;3.47;1.10;;;23.50;95.40;;;;;;5052755;28;20588;-60
2022/08/27 13:02:11;;;;;;;4.18;1.50;;;23.20;95.30;;;;;;5053925;28;20045;-60
2022/08/27 13:04:39;;;;;;;5.75;1.33;;;22.80;95.50;;;;;;5053962;28;20037;-60
2022/08/27 13:07:06;;;;;;;6.60;1.10;;;22.70;96.30;;;;;;5067643;28;20052;-61